Time;durP1;ratioP1;P1;durP2;ratioP2;P2;SDS_P1;SDS_P2;PMS_P1;PMS_P2;Temp;Humidity;BMP_temperature;BMP_pressure;BME280_temperature;BME280_humidity;BME280_pressure;Samples;Min_cycle;Max_cycle;Signal;HPM_P1;HPM_P2
2021/07/01 00:02:01;;;;;;;3.90;3.20;;;17.30;85.60;;;;;;5057679;28;20524;-42
2021/07/01 00:04:28;;;;;;;5.53;3.83;;;17.30;85.70;;;;;;5060305;28;20465;-41
2021/07/01 00:06:55;;;;;;;6.87;3.73;;;17.30;85.60;;;;;;5061208;28;20833;-43
2021/07/01 00:09:24;;;;;;;5.40;3.60;;;17.30;85.60;;;;;;5060515;28;20587;-41
2021/07/01 00:11:52;;;;;;;4.10;3.30;;;17.30;85.50;;;;;;5061827;28;20470;-41
2021/07/01 00:14:20;;;;;;;4.60;3.77;;;17.30;85.40;;;;;;5059576;28;20457;-41
2021/07/01 00:16:52;;;;;;;4.00;3.03;;;17.30;85.30;;;;;;5058837;28;20456;-41
2021/07/01 00:19:20;;;;;;;3.67;2.80;;;17.30;85.20;;;;;;5057031;28;20473;-41
2021/07/01 00:21:47;;;;;;;4.10;3.20;;;17.30;85.30;;;;;;5059920;28;20454;-41
2021/07/01 00:24:15;;;;;;;4.23;3.03;;;17.20;85.50;;;;;;5058715;28;20478;-41
2021/07/01 00:26:41;;;;;;;6.70;3.80;;;17.30;85.40;;;;;;5056206;28;20464;-41
2021/07/01 00:29:08;;;;;;;3.67;3.20;;;17.30;85.30;;;;;;5089178;27;20600;-41
2021/07/01 00:31:35;;;;;;;3.70;2.93;;;17.30;85.20;;;;;;5055069;28;20461;-41
2021/07/01 00:34:03;;;;;;;3.87;2.60;;;17.30;84.80;;;;;;5058027;28;20458;-41
2021/07/01 00:36:30;;;;;;;3.30;2.40;;;17.20;84.80;;;;;;5063131;28;20465;-41
2021/07/01 00:38:57;;;;;;;4.40;2.60;;;17.20;84.80;;;;;;5058866;28;20461;-41
2021/07/01 00:41:24;;;;;;;5.67;3.60;;;17.20;84.70;;;;;;5061165;28;20453;-41
2021/07/01 00:43:51;;;;;;;5.73;2.90;;;17.10;84.70;;;;;;5062413;28;21007;-41
2021/07/01 00:46:18;;;;;;;4.43;3.00;;;17.10;84.70;;;;;;5059208;28;20932;-41
2021/07/01 00:48:45;;;;;;;5.30;3.50;;;17.10;84.80;;;;;;5061826;28;20828;-41
2021/07/01 00:51:12;;;;;;;3.57;2.43;;;17.00;84.90;;;;;;5060975;28;20477;-41
2021/07/01 00:53:39;;;;;;;6.07;2.90;;;17.00;85.10;;;;;;5063539;28;20464;-41
2021/07/01 00:56:08;;;;;;;3.70;2.40;;;17.00;85.10;;;;;;5060130;28;20951;-41
2021/07/01 00:58:36;;;;;;;4.50;2.90;;;17.00;85.10;;;;;;5060937;28;20483;-41
2021/07/01 01:01:05;;;;;;;4.13;2.93;;;17.00;85.00;;;;;;5062475;28;20464;-41
2021/07/01 01:03:37;;;;;;;5.03;3.10;;;16.90;85.20;;;;;;5057237;28;21009;-41
2021/07/01 01:06:06;;;;;;;2.63;2.07;;;16.90;85.40;;;;;;5060819;28;20451;-41
2021/07/01 01:08:33;;;;;;;3.80;3.17;;;16.90;85.10;;;;;;5083921;28;20473;-41
2021/07/01 01:11:00;;;;;;;3.80;3.30;;;16.90;85.00;;;;;;5085609;28;20812;-41
2021/07/01 01:13:27;;;;;;;3.77;3.33;;;16.90;85.10;;;;;;5051372;28;20474;-41
2021/07/01 01:15:59;;;;;;;9.33;3.23;;;16.90;85.00;;;;;;5057921;28;20466;-41
2021/07/01 01:18:27;;;;;;;6.80;3.73;;;16.90;85.20;;;;;;5055023;28;20478;-41
2021/07/01 01:20:55;;;;;;;5.27;3.47;;;16.90;84.90;;;;;;5056384;28;20485;-41
2021/07/01 01:23:23;;;;;;;5.60;3.97;;;16.90;85.30;;;;;;5057019;28;20492;-41
2021/07/01 01:25:52;;;;;;;5.00;3.10;;;16.90;85.40;;;;;;5054734;28;20461;-41
2021/07/01 01:28:19;;;;;;;4.60;3.73;;;16.90;85.20;;;;;;5054716;28;20465;-41
2021/07/01 01:30:45;;;;;;;5.00;3.80;;;16.90;85.30;;;;;;5058277;28;20453;-41
2021/07/01 01:33:13;;;;;;;5.70;3.57;;;16.90;85.20;;;;;;5059805;28;20465;-41
2021/07/01 01:35:40;;;;;;;7.73;3.93;;;16.90;85.20;;;;;;5058591;28;20458;-41
2021/07/01 01:38:12;;;;;;;4.80;3.57;;;16.90;85.30;;;;;;5061297;28;20466;-41
2021/07/01 01:40:40;;;;;;;6.50;4.43;;;16.90;85.30;;;;;;5062068;28;20458;-41
2021/07/01 01:43:07;;;;;;;4.73;3.70;;;16.90;85.00;;;;;;5080108;28;20493;-41
2021/07/01 01:45:37;;;;;;;4.50;3.53;;;17.00;84.90;;;;;;5061001;28;20700;-41
2021/07/01 01:48:05;;;;;;;6.50;4.10;;;17.00;84.80;;;;;;5066186;28;20458;-41
2021/07/01 01:50:32;;;;;;;5.00;3.83;;;17.00;84.90;;;;;;5063238;28;20462;-41
2021/07/01 01:53:00;;;;;;;6.10;3.83;;;17.00;84.90;;;;;;5051206;28;20466;-41
2021/07/01 01:55:27;;;;;;;4.60;3.37;;;17.00;84.90;;;;;;5064024;28;20504;-41
2021/07/01 01:57:56;;;;;;;4.37;3.27;;;17.00;85.00;;;;;;5062315;28;20469;-41
2021/07/01 02:00:26;;;;;;;5.50;3.93;;;17.10;84.40;;;;;;5062386;28;20457;-41
2021/07/01 02:02:53;;;;;;;6.50;3.30;;;17.00;84.30;;;;;;5064873;28;20857;-43
2021/07/01 02:05:21;;;;;;;5.17;3.43;;;17.00;84.60;;;;;;5059813;28;20475;-43
2021/07/01 02:07:48;;;;;;;5.40;3.20;;;17.00;84.70;;;;;;5059693;28;20454;-44
2021/07/01 02:10:20;;;;;;;4.50;4.10;;;17.00;84.70;;;;;;5089104;28;20458;-44
2021/07/01 02:12:48;;;;;;;3.27;2.90;;;17.00;84.70;;;;;;5060531;28;20450;-43
2021/07/01 02:15:18;;;;;;;5.70;3.50;;;17.00;84.80;;;;;;5061156;28;20509;-43
2021/07/01 02:17:44;;;;;;;5.57;3.17;;;17.00;84.80;;;;;;5058957;28;20473;-43
2021/07/01 02:20:15;;;;;;;3.33;3.03;;;17.00;84.60;;;;;;5062386;28;20460;-43
2021/07/01 02:22:42;;;;;;;5.50;2.77;;;17.00;84.70;;;;;;5060324;28;20795;-43
2021/07/01 02:25:09;;;;;;;5.33;3.20;;;17.00;84.60;;;;;;5062917;28;20461;-43
2021/07/01 02:27:40;;;;;;;4.70;3.00;;;17.00;84.60;;;;;;5062041;28;20450;-43
2021/07/01 02:30:10;;;;;;;5.77;3.33;;;16.90;84.60;;;;;;5058219;28;20458;-43
2021/07/01 02:32:37;;;;;;;4.60;2.73;;;16.90;84.60;;;;;;5067262;28;20434;-44
2021/07/01 02:35:08;;;;;;;5.10;2.80;;;16.90;84.60;;;;;;5060561;28;20454;-44
2021/07/01 02:37:35;;;;;;;4.13;2.80;;;16.90;84.40;;;;;;5062177;28;20458;-43
2021/07/01 02:40:11;;;;;;;3.47;3.10;;;17.00;84.10;;;;;;5061428;28;21019;-43
2021/07/01 02:42:39;;;;;;;4.70;3.70;;;17.00;84.00;;;;;;5061188;28;20886;-43
2021/07/01 02:45:11;;;;;;;4.37;2.80;;;17.00;83.80;;;;;;5059308;28;20821;-43
2021/07/01 02:47:38;;;;;;;3.77;2.90;;;17.00;84.00;;;;;;5059363;28;20476;-43
2021/07/01 02:50:08;;;;;;;3.57;2.87;;;17.00;83.80;;;;;;5063346;28;20856;-44
2021/07/01 02:52:35;;;;;;;4.70;3.10;;;17.00;84.00;;;;;;5060910;28;20473;-43
2021/07/01 02:55:07;;;;;;;3.13;2.83;;;17.00;84.00;;;;;;5062929;28;20455;-41
2021/07/01 02:57:36;;;;;;;5.30;2.80;;;17.00;84.00;;;;;;5060549;28;20489;-41
2021/07/01 03:00:10;;;;;;;4.40;2.87;;;17.00;83.70;;;;;;5061583;28;20458;-41
2021/07/01 03:02:37;;;;;;;2.47;2.27;;;17.00;83.50;;;;;;5058728;28;20967;-41
2021/07/01 03:05:06;;;;;;;5.00;3.30;;;17.00;83.40;;;;;;5060032;28;20496;-41
2021/07/01 03:07:33;;;;;;;2.90;2.23;;;17.00;83.50;;;;;;5058958;28;20454;-41
2021/07/01 03:10:01;;;;;;;4.53;2.80;;;17.00;83.60;;;;;;5067374;28;20877;-41
2021/07/01 03:12:27;;;;;;;3.17;2.57;;;17.00;83.40;;;;;;5062950;28;20544;-41
2021/07/01 03:14:54;;;;;;;3.20;2.40;;;17.00;83.40;;;;;;5061279;28;20546;-41
2021/07/01 03:17:21;;;;;;;4.07;3.03;;;17.00;83.00;;;;;;5090850;27;20457;-41
2021/07/01 03:19:48;;;;;;;3.10;2.73;;;16.90;83.20;;;;;;5087464;28;20462;-41
2021/07/01 03:22:17;;;;;;;6.30;2.60;;;16.90;83.40;;;;;;5059806;28;20474;-41
2021/07/01 03:24:43;;;;;;;3.17;2.87;;;16.90;83.40;;;;;;5056504;28;20497;-41
2021/07/01 03:27:10;;;;;;;5.73;3.30;;;16.90;83.40;;;;;;5062874;28;20449;-41
2021/07/01 03:29:37;;;;;;;5.30;3.07;;;16.90;83.50;;;;;;5060667;28;20458;-41
2021/07/01 03:32:04;;;;;;;3.90;3.20;;;16.80;83.60;;;;;;5060249;28;21162;-41
2021/07/01 03:34:33;;;;;;;5.07;3.57;;;16.80;83.80;;;;;;5088025;28;20466;-41
2021/07/01 03:37:00;;;;;;;4.40;4.00;;;16.80;83.90;;;;;;5060308;28;20467;-41
2021/07/01 03:39:27;;;;;;;5.03;3.27;;;16.80;84.20;;;;;;5059477;28;20478;-41
2021/07/01 03:41:53;;;;;;;6.53;3.37;;;16.80;84.20;;;;;;5061913;28;20919;-41
2021/07/01 03:44:20;;;;;;;4.90;3.30;;;16.80;84.30;;;;;;5063840;28;20481;-41
2021/07/01 03:46:47;;;;;;;4.73;2.97;;;16.90;84.20;;;;;;5065521;28;20450;-41
2021/07/01 03:49:14;;;;;;;4.50;3.27;;;16.90;84.00;;;;;;5060590;28;20917;-41
2021/07/01 03:51:40;;;;;;;5.47;3.13;;;16.90;84.00;;;;;;5057333;28;20455;-41
2021/07/01 03:54:07;;;;;;;4.90;3.30;;;16.90;83.60;;;;;;5058198;28;20960;-40
2021/07/01 03:56:44;;;;;;;3.20;2.90;;;16.90;83.60;;;;;;5058966;28;20457;-41
2021/07/01 03:59:12;;;;;;;4.60;2.80;;;16.90;83.70;;;;;;5060824;28;20987;-41
2021/07/01 04:01:40;;;;;;;5.30;3.43;;;16.90;83.30;;;;;;5054382;28;20457;-41
2021/07/01 04:04:07;;;;;;;4.00;2.70;;;16.90;83.00;;;;;;5056182;28;20898;-41
2021/07/01 04:06:34;;;;;;;6.43;3.00;;;16.90;83.00;;;;;;5056978;28;20454;-41
2021/07/01 04:09:02;;;;;;;4.13;3.10;;;16.80;83.30;;;;;;5056046;28;20465;-41
2021/07/01 04:11:29;;;;;;;5.43;2.50;;;16.80;83.30;;;;;;5056113;28;20473;-40
2021/07/01 04:13:56;;;;;;;3.67;2.97;;;16.80;83.00;;;;;;5087210;28;20454;-40
2021/07/01 04:16:23;;;;;;;3.47;2.80;;;16.80;83.20;;;;;;5057692;28;20536;-40
2021/07/01 04:18:50;;;;;;;3.23;2.63;;;16.80;83.50;;;;;;5060077;28;20886;-41
2021/07/01 04:21:17;;;;;;;2.80;2.50;;;16.70;83.50;;;;;;5057867;28;20528;-41
2021/07/01 04:23:44;;;;;;;5.20;3.10;;;16.70;83.80;;;;;;5058446;28;20485;-41
2021/07/01 04:26:11;;;;;;;3.57;3.10;;;16.70;84.00;;;;;;5060415;28;20814;-40
2021/07/01 04:28:42;;;;;;;5.07;3.23;;;16.80;84.00;;;;;;5063095;28;20446;-40
2021/07/01 04:31:09;;;;;;;4.07;2.90;;;16.80;83.40;;;;;;5061630;28;20477;-40
2021/07/01 04:33:36;;;;;;;7.43;3.53;;;16.80;83.10;;;;;;5056977;28;20472;-40
2021/07/01 04:36:03;;;;;;;5.80;3.20;;;16.80;83.10;;;;;;5061289;28;20465;-40
2021/07/01 04:38:30;;;;;;;3.80;3.00;;;16.80;83.00;;;;;;5088250;28;20466;-40
2021/07/01 04:40:57;;;;;;;5.20;3.10;;;16.80;83.00;;;;;;5056308;28;20465;-40
2021/07/01 04:43:23;;;;;;;7.70;3.10;;;16.80;83.10;;;;;;5058873;28;21233;-40
2021/07/01 04:45:50;;;;;;;14.67;9.40;;;16.70;83.30;;;;;;5056255;28;20942;-40
2021/07/01 04:48:17;;;;;;;7.90;5.13;;;16.80;83.40;;;;;;5056135;28;20465;-40
2021/07/01 04:50:44;;;;;;;6.33;3.87;;;16.80;83.40;;;;;;5056717;28;20455;-40
2021/07/01 04:53:10;;;;;;;4.30;3.17;;;16.80;83.40;;;;;;5057108;28;21196;-40
2021/07/01 04:55:37;;;;;;;6.80;3.13;;;16.70;83.60;;;;;;5059298;28;20465;-40
2021/07/01 04:58:04;;;;;;;5.43;3.20;;;16.70;83.50;;;;;;5059196;28;20458;-40
2021/07/01 05:00:34;;;;;;;7.10;3.50;;;16.80;83.30;;;;;;5083032;28;20484;-40
2021/07/01 05:03:02;;;;;;;6.73;3.30;;;16.70;83.30;;;;;;5058733;28;20985;-41
2021/07/01 05:05:28;;;;;;;3.80;3.03;;;16.70;83.20;;;;;;5055821;28;20478;-41
2021/07/01 05:07:55;;;;;;;4.30;3.70;;;16.70;83.30;;;;;;5057625;28;20507;-40
2021/07/01 05:10:22;;;;;;;5.10;3.33;;;16.70;83.60;;;;;;5058708;28;20469;-40
2021/07/01 05:12:49;;;;;;;5.73;3.50;;;16.70;83.40;;;;;;5055211;28;20454;-40
2021/07/01 05:15:15;;;;;;;4.67;3.50;;;16.60;83.60;;;;;;5058070;28;20451;-41
2021/07/01 05:17:42;;;;;;;4.43;3.63;;;16.60;83.60;;;;;;5057083;28;20524;-41
2021/07/01 05:20:09;;;;;;;7.73;3.73;;;16.70;83.70;;;;;;5057729;28;20716;-41
2021/07/01 05:22:36;;;;;;;4.83;3.67;;;16.60;83.50;;;;;;5087000;28;20897;-41
2021/07/01 05:25:04;;;;;;;8.57;4.60;;;16.60;83.20;;;;;;5056679;28;20847;-40
2021/07/01 05:27:31;;;;;;;6.20;3.97;;;16.60;83.20;;;;;;5057304;28;20609;-40
2021/07/01 05:29:58;;;;;;;5.47;3.47;;;16.60;83.20;;;;;;5057987;28;20458;-40
2021/07/01 05:32:30;;;;;;;6.57;3.00;;;16.60;83.00;;;;;;5056281;28;20532;-40
2021/07/01 05:34:57;;;;;;;2.70;2.50;;;16.60;81.80;;;;;;5058853;28;20458;-40
2021/07/01 05:37:24;;;;;;;3.90;2.83;;;16.70;81.00;;;;;;5054626;28;20465;-40
2021/07/01 05:39:50;;;;;;;3.40;2.80;;;16.70;81.20;;;;;;5054307;28;20463;-40
2021/07/01 05:42:17;;;;;;;3.80;3.10;;;16.60;81.20;;;;;;5086874;28;20951;-40
2021/07/01 05:44:44;;;;;;;5.40;3.60;;;16.60;81.10;;;;;;5061043;28;20845;-40
2021/07/01 05:47:11;;;;;;;4.43;3.17;;;16.60;81.50;;;;;;5059038;28;20508;-40
2021/07/01 05:49:38;;;;;;;8.53;3.40;;;16.50;81.80;;;;;;5055084;28;20875;-40
2021/07/01 05:52:07;;;;;;;6.70;4.63;;;16.50;82.10;;;;;;5054979;28;20550;-40
2021/07/01 05:57:01;;;;;;;4.53;3.60;;;16.50;82.10;;;;;;5058801;28;20453;-40
2021/07/01 05:59:28;;;;;;;5.20;4.43;;;16.60;82.60;;;;;;5063641;28;20462;-40
2021/07/01 06:01:55;;;;;;;5.90;4.33;;;16.60;82.50;;;;;;5055286;28;20530;-40
2021/07/01 06:04:22;;;;;;;4.60;3.83;;;16.60;82.20;;;;;;5055299;28;21018;-40
2021/07/01 06:06:51;;;;;;;6.07;3.90;;;16.60;82.20;;;;;;5057480;28;20459;-40
2021/07/01 06:09:24;;;;;;;6.77;4.00;;;16.70;82.60;;;;;;5069324;28;20463;-40
2021/07/01 06:11:56;;;;;;;4.13;3.33;;;16.70;81.80;;;;;;5059275;28;20461;-40
2021/07/01 06:14:26;;;;;;;3.73;3.30;;;16.70;82.00;;;;;;5060075;28;20469;-40
2021/07/01 06:16:55;;;;;;;5.17;4.43;;;16.70;81.10;;;;;;5060869;28;20453;-41
2021/07/01 06:19:23;;;;;;;5.03;3.63;;;16.60;81.30;;;;;;5059834;28;20488;-40
2021/07/01 06:21:51;;;;;;;7.43;4.13;;;16.60;82.00;;;;;;5062397;28;20469;-40
2021/07/01 06:24:19;;;;;;;4.83;3.10;;;16.60;81.80;;;;;;5092516;27;20485;-40
2021/07/01 06:26:48;;;;;;;8.43;4.00;;;16.60;81.50;;;;;;5066010;28;20451;-40
2021/07/01 06:29:17;;;;;;;3.60;2.53;;;16.60;81.90;;;;;;5065049;28;20458;-40
2021/07/01 06:31:44;;;;;;;4.23;3.07;;;16.70;81.30;;;;;;5060066;28;20465;-40
2021/07/01 06:34:13;;;;;;;3.40;3.10;;;16.70;81.50;;;;;;5063393;28;20493;-40
2021/07/01 06:36:42;;;;;;;3.13;2.80;;;16.70;81.50;;;;;;5089593;28;20462;-40
2021/07/01 06:39:11;;;;;;;3.57;2.77;;;16.70;81.50;;;;;;5060519;28;20557;-40
2021/07/01 06:41:43;;;;;;;3.60;2.83;;;16.70;81.50;;;;;;5086305;28;20472;-40
2021/07/01 06:44:14;;;;;;;4.97;3.33;;;16.80;80.20;;;;;;5058913;28;20990;-40
2021/07/01 06:46:41;;;;;;;4.40;2.90;;;16.80;80.20;;;;;;5088455;28;20456;-41
2021/07/01 06:49:12;;;;;;;2.87;2.50;;;16.80;79.80;;;;;;5089585;27;20516;-41
2021/07/01 06:51:42;;;;;;;3.47;2.77;;;16.90;80.30;;;;;;5062681;28;20531;-41
2021/07/01 06:54:14;;;;;;;2.80;2.33;;;16.80;80.00;;;;;;5062272;28;20450;-41
2021/07/01 06:56:41;;;;;;;3.87;2.10;;;16.90;80.30;;;;;;5062577;28;21010;-41
2021/07/01 06:59:13;;;;;;;2.40;1.50;;;16.90;80.70;;;;;;5057103;28;20987;-41
2021/07/01 07:01:40;;;;;;;2.20;1.80;;;17.00;79.40;;;;;;5067246;28;20461;-41
2021/07/01 07:04:18;;;;;;;2.57;1.60;;;17.10;78.20;;;;;;5058210;28;20477;-41
2021/07/01 07:06:46;;;;;;;1.77;1.47;;;17.10;77.20;;;;;;5059559;28;20463;-41
2021/07/01 07:09:14;;;;;;;1.77;1.30;;;17.10;78.30;;;;;;5088665;28;20961;-41
2021/07/01 07:11:42;;;;;;;2.57;1.97;;;17.10;78.20;;;;;;5058100;28;20462;-41
2021/07/01 07:14:11;;;;;;;1.87;1.50;;;17.10;78.10;;;;;;5059129;28;20484;-41
2021/07/01 07:16:41;;;;;;;1.77;1.30;;;17.20;78.00;;;;;;5060514;28;20461;-41
2021/07/01 07:19:09;;;;;;;2.37;1.50;;;17.20;77.70;;;;;;5060518;28;20484;-41
2021/07/01 07:21:47;;;;;;;2.40;1.40;;;17.20;78.30;;;;;;5058237;28;20545;-41
2021/07/01 07:24:17;;;;;;;2.70;1.40;;;17.20;77.00;;;;;;5087128;27;21419;-41
2021/07/01 07:26:53;;;;;;;1.73;1.27;;;17.20;77.60;;;;;;5059618;28;20460;-41
2021/07/01 07:29:35;;;;;;;2.03;1.30;;;17.30;77.90;;;;;;5061659;28;20481;-41
2021/07/01 07:32:04;;;;;;;2.10;1.40;;;17.30;78.10;;;;;;5058932;28;20477;-41
2021/07/01 07:34:33;;;;;;;2.23;1.90;;;17.30;78.00;;;;;;5056518;28;20462;-41
2021/07/01 07:37:00;;;;;;;3.03;1.57;;;17.40;76.90;;;;;;5059350;28;21051;-41
2021/07/01 07:39:28;;;;;;;4.13;1.97;;;17.50;77.40;;;;;;5065556;28;20526;-42
2021/07/01 07:41:56;;;;;;;1.63;1.53;;;17.40;77.60;;;;;;5062484;28;20452;-41
2021/07/01 07:44:23;;;;;;;1.93;1.70;;;17.40;77.90;;;;;;5062032;28;21077;-41
2021/07/01 07:46:51;;;;;;;1.50;1.40;;;17.50;76.90;;;;;;5085878;27;21029;-41
2021/07/01 07:49:19;;;;;;;3.80;1.30;;;17.50;77.00;;;;;;5049803;28;20443;-41
2021/07/01 07:51:50;;;;;;;2.20;2.00;;;17.60;77.30;;;;;;5061514;28;20539;-41
2021/07/01 07:54:25;;;;;;;2.07;1.70;;;17.60;77.70;;;;;;5055796;28;20603;-41
2021/07/01 07:56:55;;;;;;;1.60;1.20;;;17.60;77.60;;;;;;5061740;28;20893;-41
2021/07/01 07:59:28;;;;;;;2.30;1.27;;;17.70;76.80;;;;;;5060895;28;20468;-41
2021/07/01 08:02:03;;;;;;;2.10;1.47;;;17.70;76.00;;;;;;5059285;28;20466;-41
2021/07/01 08:04:33;;;;;;;2.37;1.70;;;17.70;75.10;;;;;;5057684;28;20831;-41
2021/07/01 08:07:02;;;;;;;1.90;1.33;;;17.70;75.70;;;;;;5057787;28;20557;-41
2021/07/01 08:09:30;;;;;;;1.73;1.17;;;17.70;76.30;;;;;;5087675;28;20983;-42
2021/07/01 08:11:58;;;;;;;3.53;1.20;;;17.70;76.20;;;;;;5065455;28;20544;-41
2021/07/01 08:14:25;;;;;;;2.20;1.13;;;17.60;76.60;;;;;;5061923;28;20465;-42
2021/07/01 08:16:52;;;;;;;1.70;1.30;;;17.60;75.90;;;;;;5056855;28;20453;-42
2021/07/01 08:19:19;;;;;;;2.17;1.53;;;17.60;76.00;;;;;;5057466;28;20568;-42
2021/07/01 08:21:47;;;;;;;2.30;1.60;;;17.60;77.20;;;;;;5060432;28;20468;-42
2021/07/01 08:24:14;;;;;;;2.63;1.77;;;17.60;77.40;;;;;;5059491;28;20458;-42
2021/07/01 08:26:42;;;;;;;2.40;1.70;;;17.60;77.60;;;;;;5058483;28;20541;-42
2021/07/01 08:29:10;;;;;;;2.20;1.53;;;17.70;77.90;;;;;;5058836;28;20470;-42
2021/07/01 08:31:46;;;;;;;1.77;1.50;;;17.70;77.90;;;;;;5058833;28;20947;-42
2021/07/01 08:34:17;;;;;;;1.30;1.10;;;17.80;76.90;;;;;;5057520;28;20817;-42
2021/07/01 08:36:46;;;;;;;1.90;1.00;;;17.80;76.20;;;;;;5059163;28;20955;-42
2021/07/01 08:39:13;;;;;;;2.50;1.40;;;17.80;76.50;;;;;;5060392;28;20441;-42
2021/07/01 08:41:44;;;;;;;2.33;1.33;;;17.80;76.10;;;;;;5056663;28;20931;-42
2021/07/01 08:44:22;;;;;;;1.70;1.50;;;17.90;76.60;;;;;;5062066;28;20450;-42
2021/07/01 08:46:51;;;;;;;2.93;1.70;;;18.00;76.40;;;;;;5062438;28;21015;-42
2021/07/01 08:49:52;;;;;;;1.40;1.10;;;18.10;76.10;;;;;;5063109;28;20462;-42
2021/07/01 08:52:22;;;;;;;1.13;0.90;;;18.20;76.00;;;;;;5061081;28;20451;-42
2021/07/01 08:55:02;;;;;;;1.90;0.90;;;18.30;75.50;;;;;;5060447;28;20466;-42
2021/07/01 08:57:36;;;;;;;1.00;0.90;;;18.40;75.40;;;;;;5062050;28;20450;-42
2021/07/01 09:00:09;;;;;;;1.13;0.90;;;18.40;74.00;;;;;;5090198;28;20534;-42
2021/07/01 09:02:42;;;;;;;5.47;1.10;;;18.40;73.10;;;;;;5057779;28;21093;-42
2021/07/01 09:05:17;;;;;;;1.17;0.83;;;18.50;73.60;;;;;;5057156;28;20492;-42
2021/07/01 09:07:52;;;;;;;1.23;0.97;;;18.50;73.20;;;;;;5083149;28;20455;-42
2021/07/01 09:10:21;;;;;;;2.10;0.97;;;18.50;72.10;;;;;;5085855;28;21163;-42
2021/07/01 09:12:52;;;;;;;1.23;0.90;;;18.50;72.80;;;;;;5089222;28;20465;-42
2021/07/01 09:15:19;;;;;;;2.00;1.20;;;18.50;72.70;;;;;;5057485;28;20894;-42
2021/07/01 09:17:52;;;;;;;1.10;1.00;;;18.50;72.80;;;;;;5058418;28;20509;-43
2021/07/01 09:20:23;;;;;;;2.67;1.53;;;18.60;72.20;;;;;;5055932;28;20521;-42
2021/07/01 09:22:56;;;;;;;2.23;1.17;;;18.60;72.40;;;;;;5060094;28;20458;-42
2021/07/01 09:25:24;;;;;;;1.63;1.10;;;18.60;73.30;;;;;;5056400;28;20493;-42
2021/07/01 09:27:53;;;;;;;3.27;1.27;;;18.70;73.10;;;;;;5055776;28;20460;-42
2021/07/01 09:30:27;;;;;;;1.03;0.93;;;18.70;73.20;;;;;;5061725;28;20468;-42
2021/07/01 09:33:00;;;;;;;4.07;1.23;;;18.70;72.50;;;;;;5056268;28;20474;-42
2021/07/01 09:35:30;;;;;;;2.27;1.43;;;18.80;72.00;;;;;;5059653;28;20454;-42
2021/07/01 09:38:08;;;;;;;1.10;1.00;;;18.70;72.10;;;;;;5062850;28;20545;-42
2021/07/01 09:40:36;;;;;;;2.70;1.10;;;18.70;72.60;;;;;;5055875;28;20828;-43
2021/07/01 09:43:07;;;;;;;1.90;1.63;;;18.70;72.50;;;;;;5058574;28;20451;-42
2021/07/01 09:45:35;;;;;;;1.93;1.10;;;18.80;72.00;;;;;;5063488;28;20493;-42
2021/07/01 09:48:09;;;;;;;1.70;0.63;;;18.70;71.80;;;;;;5058964;28;20465;-42
2021/07/01 09:50:50;;;;;;;1.27;0.80;;;18.70;71.50;;;;;;5055982;28;20822;-42
2021/07/01 09:53:28;;;;;;;1.47;1.13;;;18.60;71.80;;;;;;5055545;28;20970;-42
2021/07/01 09:55:55;;;;;;;2.00;0.97;;;18.60;72.70;;;;;;5056835;28;20954;-42
2021/07/01 09:58:29;;;;;;;1.40;1.00;;;18.50;72.40;;;;;;5081947;28;20453;-42
2021/07/01 10:00:57;;;;;;;1.60;1.10;;;18.40;73.10;;;;;;5066063;28;20946;-42
2021/07/01 10:03:23;;;;;;;3.03;0.93;;;18.40;73.20;;;;;;5059478;28;20458;-42
2021/07/01 10:05:50;;;;;;;0.90;0.70;;;18.50;73.20;;;;;;5062650;28;20584;-42
2021/07/01 10:08:17;;;;;;;1.53;0.70;;;18.40;73.40;;;;;;5090853;28;20468;-42
2021/07/01 10:10:52;;;;;;;0.90;0.70;;;18.30;73.10;;;;;;5065025;28;20466;-43
2021/07/01 10:13:21;;;;;;;1.17;0.80;;;18.20;73.70;;;;;;5068303;28;20450;-42
2021/07/01 10:15:51;;;;;;;0.87;0.77;;;18.20;74.40;;;;;;5057727;28;20536;-42
2021/07/01 10:18:20;;;;;;;1.00;0.80;;;18.20;74.90;;;;;;5060097;28;20481;-42
2021/07/01 10:20:57;;;;;;;1.00;0.90;;;18.20;74.60;;;;;;5060806;28;20503;-42
2021/07/01 10:23:35;;;;;;;1.10;0.90;;;18.20;74.80;;;;;;5061492;28;20544;-42
2021/07/01 10:26:13;;;;;;;1.07;0.77;;;18.20;75.00;;;;;;5087614;28;20488;-43
2021/07/01 10:28:40;;;;;;;1.93;1.50;;;18.20;73.10;;;;;;5062702;28;20470;-42
2021/07/01 10:31:12;;;;;;;2.97;1.63;;;18.20;73.40;;;;;;5064134;28;20780;-42
2021/07/01 10:33:41;;;;;;;1.90;1.50;;;18.20;72.90;;;;;;5058466;28;20454;-42
2021/07/01 10:36:17;;;;;;;2.40;1.70;;;18.20;73.20;;;;;;5091474;28;20475;-42
2021/07/01 10:38:46;;;;;;;2.57;2.07;;;18.20;73.90;;;;;;5061938;28;20476;-42
2021/07/01 10:41:33;;;;;;;3.50;2.20;;;18.20;73.30;;;;;;5064284;28;20473;-42
2021/07/01 10:44:01;;;;;;;2.93;2.00;;;18.20;72.70;;;;;;5092117;27;20463;-42
2021/07/01 10:46:43;;;;;;;3.30;2.13;;;18.10;73.20;;;;;;5093327;28;20482;-42
2021/07/01 10:49:11;;;;;;;3.50;2.27;;;18.10;73.50;;;;;;5062250;28;20477;-42
2021/07/01 10:51:54;;;;;;;3.77;3.07;;;18.10;73.30;;;;;;5087833;27;20453;-42
2021/07/01 10:54:21;;;;;;;4.77;2.87;;;18.10;72.50;;;;;;5060100;28;20449;-42
2021/07/01 10:57:08;;;;;;;4.93;3.27;;;18.10;72.00;;;;;;5061294;28;20458;-42
2021/07/01 10:59:50;;;;;;;3.80;3.00;;;18.10;72.60;;;;;;5058492;28;21011;-43
2021/07/01 11:02:29;;;;;;;5.57;3.50;;;18.00;72.70;;;;;;5055776;28;20461;-42
2021/07/01 11:04:58;;;;;;;3.17;2.77;;;18.10;73.30;;;;;;5058434;28;20450;-42
2021/07/01 11:07:26;;;;;;;4.77;3.03;;;18.10;72.80;;;;;;5069882;28;20507;-42
2021/07/01 11:09:56;;;;;;;4.30;3.07;;;18.10;73.00;;;;;;5060501;28;20483;-42
2021/07/01 11:12:27;;;;;;;4.80;3.17;;;18.10;73.40;;;;;;5065172;28;20426;-42
2021/07/01 11:14:56;;;;;;;4.10;2.43;;;18.20;73.70;;;;;;5058507;28;20478;-42
2021/07/01 11:17:31;;;;;;;3.20;2.00;;;18.20;73.50;;;;;;5060738;28;20462;-42
2021/07/01 11:20:17;;;;;;;3.00;2.30;;;18.30;72.80;;;;;;5089382;27;20532;-42
2021/07/01 11:22:44;;;;;;;2.60;2.10;;;18.40;72.60;;;;;;5058671;28;20465;-42
2021/07/01 11:25:28;;;;;;;4.60;3.27;;;18.40;71.20;;;;;;5059245;28;20511;-42
2021/07/01 11:28:22;;;;;;;2.57;2.30;;;18.40;71.60;;;;;;5057872;28;20454;-42
2021/07/01 11:30:55;;;;;;;2.83;2.50;;;18.40;71.40;;;;;;5059629;28;20781;-42
2021/07/01 11:33:22;;;;;;;3.93;3.07;;;18.40;71.50;;;;;;5057487;28;20468;-42
2021/07/01 11:35:50;;;;;;;3.40;2.97;;;18.40;71.30;;;;;;5060161;28;20467;-43
2021/07/01 11:38:32;;;;;;;3.60;2.33;;;18.40;71.00;;;;;;5058257;28;20466;-42
2021/07/01 11:41:03;;;;;;;3.60;3.10;;;18.40;71.40;;;;;;5059024;28;20459;-42
2021/07/01 11:43:32;;;;;;;3.27;2.87;;;18.30;71.80;;;;;;5057881;28;20455;-43
2021/07/01 11:45:59;;;;;;;3.53;2.83;;;18.30;72.60;;;;;;5057419;28;20492;-42
2021/07/01 11:48:29;;;;;;;3.03;2.40;;;18.40;72.00;;;;;;5060733;28;20973;-42
2021/07/01 11:50:58;;;;;;;3.33;2.80;;;18.40;71.90;;;;;;5056224;28;20997;-42
2021/07/01 11:53:26;;;;;;;3.03;2.30;;;18.40;71.70;;;;;;5058788;28;20497;-42
2021/07/01 11:55:59;;;;;;;3.97;2.93;;;18.40;72.30;;;;;;5059445;28;20468;-42
2021/07/01 11:58:27;;;;;;;3.70;3.03;;;18.40;72.50;;;;;;5061327;28;20465;-42
2021/07/01 12:00:55;;;;;;;4.37;3.30;;;18.50;72.80;;;;;;5055051;28;20482;-42
2021/07/01 12:03:22;;;;;;;6.70;3.67;;;18.50;72.70;;;;;;5060519;28;22057;-43
2021/07/01 12:05:54;;;;;;;3.70;2.97;;;18.60;72.40;;;;;;5059202;28;20496;-43
2021/07/01 12:08:21;;;;;;;4.40;3.30;;;18.70;71.20;;;;;;5058976;28;20821;-42
2021/07/01 12:10:57;;;;;;;7.30;3.50;;;18.90;71.30;;;;;;5059034;28;20513;-42
2021/07/01 12:13:34;;;;;;;4.13;3.00;;;18.90;70.80;;;;;;5058055;28;20456;-42
2021/07/01 12:16:02;;;;;;;3.87;3.10;;;19.00;69.80;;;;;;5059182;28;20458;-42
2021/07/01 12:18:50;;;;;;;5.03;3.60;;;19.10;69.50;;;;;;5058186;28;20485;-42
2021/07/01 12:21:28;;;;;;;3.63;3.27;;;19.10;69.70;;;;;;5057925;28;20823;-43
2021/07/01 12:24:07;;;;;;;5.33;3.40;;;19.10;68.90;;;;;;5058592;28;20469;-42
2021/07/01 12:26:42;;;;;;;3.73;2.67;;;19.20;68.20;;;;;;5058112;28;20496;-42
2021/07/01 12:29:19;;;;;;;3.10;2.80;;;19.10;68.40;;;;;;5062334;28;20864;-42
2021/07/01 12:31:46;;;;;;;4.33;2.90;;;19.10;66.90;;;;;;5061318;28;20455;-43
2021/07/01 12:34:20;;;;;;;4.33;2.70;;;19.10;67.60;;;;;;5049721;28;20556;-42
2021/07/01 12:37:04;;;;;;;3.03;2.73;;;19.10;68.40;;;;;;5062204;28;21074;-43
2021/07/01 12:39:39;;;;;;;5.33;3.20;;;19.10;68.20;;;;;;5061147;28;20990;-43
2021/07/01 12:42:05;;;;;;;3.30;2.37;;;19.00;68.00;;;;;;5089132;28;20469;-42
2021/07/01 12:44:38;;;;;;;2.87;2.40;;;19.00;68.40;;;;;;5059672;28;20541;-42
2021/07/01 12:47:08;;;;;;;4.83;2.40;;;19.00;68.80;;;;;;5060435;28;20476;-42
2021/07/01 12:49:37;;;;;;;4.27;2.50;;;18.90;68.60;;;;;;5058188;28;20513;-42
2021/07/01 12:52:09;;;;;;;4.00;3.23;;;18.90;68.00;;;;;;5059444;28;20445;-42
2021/07/01 12:54:36;;;;;;;4.27;2.10;;;18.90;67.70;;;;;;5058052;28;20445;-42
2021/07/01 12:57:05;;;;;;;3.07;2.77;;;18.90;68.60;;;;;;5059094;28;20454;-42
2021/07/01 12:59:43;;;;;;;3.50;2.57;;;19.00;68.90;;;;;;5059984;28;20932;-43
2021/07/01 13:02:12;;;;;;;3.40;3.03;;;19.10;68.90;;;;;;5055542;28;20457;-43
2021/07/01 13:04:48;;;;;;;3.40;2.97;;;19.20;68.00;;;;;;5059108;28;20462;-42